This is the latest recevied weather packets stored in our database for station/object n7wwk-1. If no packets are shown the sender has not sent any weather packets the latest 10 day(s).
| Time | Temp. | Humidity | Pressure | Rain* | Wind** | Luminosity | Snow |
|---|---|---|---|---|---|---|---|
| 1777374605 | 18.89° C | 97% | 1017.2 hPa | 0 mm | - | 19 W/m² | - |
| 1777368605 | 18.33° C | 96% | 1017 hPa | 0 mm | - | 0 W/m² | - |
| 1777367536 | 18.89° C | 96% | 1016.8 hPa | 0 mm | - | 0 W/m² | - |
| 1777365005 | 18.89° C | 96% | 1016.8 hPa | 0 mm | - | 0 W/m² | - |
| 1777356605 | 19.44° C | 92% | 1017.7 hPa | 0 mm | - | 0 W/m² | - |
| 1777355405 | 19.44° C | 92% | 1017.7 hPa | 0 mm | - | 0 W/m² | - |
| 1777353005 | 19.44° C | 92% | 1018.5 hPa | 0 mm | - | 0 W/m² | - |
| 1777348205 | 19.44° C | 92% | 1018.3 hPa | 0 mm | - | 0 W/m² | - |
| 1777347605 | 18.89° C | 92% | 1018.5 hPa | 0 mm | - | 0 W/m² | - |
| 1777341005 | 19.44° C | 90% | 1018.6 hPa | 0 mm | - | 0 W/m² | - |
| 1777335605 | 19.44° C | 88% | 1017.8 hPa | 0 mm | - | 0 W/m² | - |
| 1777334538 | 19.44° C | 87% | 1017.8 hPa | 0 mm | - | 1 W/m² | - |
| 1777333205 | 19.44° C | 87% | 1017.8 hPa | 0 mm | - | 7 W/m² | - |
| 1777332004 | 20° C | 86% | 1017.6 hPa | 0 mm | - | 24 W/m² | - |
| 1777330204 | 20° C | 85% | 1017.3 hPa | 0 mm | - | 66 W/m² | - |
| 1777327339 | 20.56° C | 84% | 1017.3 hPa | 0 mm | - | 99 W/m² | - |
| 1777326605 | 21.11° C | 83% | 1017.2 hPa | 0 mm | - | 80 W/m² | - |
| 1777324334 | 21.67° C | 82% | 1016.9 hPa | 0 mm | - | 136 W/m² | - |
| 1777321805 | 21.67° C | 81% | 1017 hPa | 0 mm | - | 197 W/m² | - |
| 1777318804 | 22.22° C | 79% | 1017.5 hPa | 0 mm | - | 277 W/m² | - |
| 1777312937 | 23.33° C | 78% | 1017.3 hPa | 0 mm | - | 1101 W/m² | - |
| 1777309205 | 22.22° C | 81% | 1017.6 hPa | 0 mm | - | 580 W/m² | - |
| 1777296005 | 21.67° C | 88% | 1015.6 hPa | 0 mm | - | 131 W/m² | - |
| 1777291804 | 21.67° C | 91% | 1014.7 hPa | 0 mm | - | 60 W/m² | - |
| 1777289405 | 20.56° C | 95% | 1014 hPa | 0 mm | - | 26 W/m² | - |
* Rain latest hour (hover to see other rain measurements)
** Current wind speed in m/s (hover to see current wind gust speed)